sensor_id;sensor_type;location;lat;lon;timestamp;pressure;altitude;pressure_sealevel;temperature;humidity
62680;BME280;68213;40.528;44.712;2023-04-28T00:00:56;80201.72;;;6.65;56.96
62680;BME280;68213;40.528;44.712;2023-04-28T00:01:57;80205.03;;;6.65;56.82
62680;BME280;68213;40.528;44.712;2023-04-28T00:02:58;80216.72;;;6.64;56.97
62680;BME280;68213;40.528;44.712;2023-04-28T00:03:59;80189.63;;;6.48;56.97
62680;BME280;68213;40.528;44.712;2023-04-28T00:05:00;80203.53;;;6.62;56.68
62680;BME280;68213;40.528;44.712;2023-04-28T00:06:01;80207.50;;;6.63;56.93
62680;BME280;68213;40.528;44.712;2023-04-28T00:07:02;80200.34;;;6.64;56.84
62680;BME280;68213;40.528;44.712;2023-04-28T00:08:04;80200.13;;;6.60;56.97
62680;BME280;68213;40.528;44.712;2023-04-28T00:09:04;80204.53;;;6.57;57.12
62680;BME280;68213;40.528;44.712;2023-04-28T00:10:06;80204.41;;;6.55;57.25
62680;BME280;68213;40.528;44.712;2023-04-28T00:11:10;80143.16;;;6.13;57.15
62680;BME280;68213;40.528;44.712;2023-04-28T00:12:10;80207.69;;;6.56;57.07
62680;BME280;68213;40.528;44.712;2023-04-28T00:13:11;80202.38;;;6.54;57.30
62680;BME280;68213;40.528;44.712;2023-04-28T00:14:15;80172.97;;;6.31;57.42
62680;BME280;68213;40.528;44.712;2023-04-28T00:15:16;80193.28;;;6.55;57.42
62680;BME280;68213;40.528;44.712;2023-04-28T00:16:17;80195.06;;;6.52;57.54
62680;BME280;68213;40.528;44.712;2023-04-28T00:17:18;80199.75;;;6.54;57.32
62680;BME280;68213;40.528;44.712;2023-04-28T00:18:19;80197.81;;;6.54;57.27
62680;BME280;68213;40.528;44.712;2023-04-28T00:19:20;80203.03;;;6.54;57.23
62680;BME280;68213;40.528;44.712;2023-04-28T00:20:21;80198.50;;;6.55;57.04
62680;BME280;68213;40.528;44.712;2023-04-28T00:21:22;80201.22;;;6.57;57.12
62680;BME280;68213;40.528;44.712;2023-04-28T00:22:23;80189.97;;;6.54;57.08
62680;BME280;68213;40.528;44.712;2023-04-28T00:23:23;80197.94;;;6.56;56.96
62680;BME280;68213;40.528;44.712;2023-04-28T00:24:24;80201.78;;;6.55;57.20
62680;BME280;68213;40.528;44.712;2023-04-28T00:25:25;80203.03;;;6.54;57.22
62680;BME280;68213;40.528;44.712;2023-04-28T00:26:25;80198.50;;;6.55;57.29
62680;BME280;68213;40.528;44.712;2023-04-28T00:27:26;80203.03;;;6.54;57.18
62680;BME280;68213;40.528;44.712;2023-04-28T00:28:27;80204.16;;;6.51;57.45
62680;BME280;68213;40.528;44.712;2023-04-28T00:29:28;80200.72;;;6.48;57.52
62680;BME280;68213;40.528;44.712;2023-04-28T00:30:29;80210.63;;;6.50;57.70
62680;BME280;68213;40.528;44.712;2023-04-28T00:31:30;80204.72;;;6.49;57.48
62680;BME280;68213;40.528;44.712;2023-04-28T00:32:31;80200.88;;;6.50;57.40
62680;BME280;68213;40.528;44.712;2023-04-28T00:33:32;80203.47;;;6.50;57.46
62680;BME280;68213;40.528;44.712;2023-04-28T00:34:33;80193.47;;;6.47;57.54
62680;BME280;68213;40.528;44.712;2023-04-28T00:35:36;80200.28;;;6.52;57.36
62680;BME280;68213;40.528;44.712;2023-04-28T00:36:37;80191.66;;;6.49;57.46
62680;BME280;68213;40.528;44.712;2023-04-28T00:37:38;80198.13;;;6.48;57.36
62680;BME280;68213;40.528;44.712;2023-04-28T00:38:39;80201.88;;;6.45;57.86
62680;BME280;68213;40.528;44.712;2023-04-28T00:39:40;80197.75;;;6.42;58.00
62680;BME280;68213;40.528;44.712;2023-04-28T00:40:41;80199.13;;;6.43;57.96
62680;BME280;68213;40.528;44.712;2023-04-28T00:41:41;80199.13;;;6.43;57.92
62680;BME280;68213;40.528;44.712;2023-04-28T00:42:42;80196.53;;;6.43;57.84
62680;BME280;68213;40.528;44.712;2023-04-28T00:43:44;80187.53;;;6.34;57.71
62680;BME280;68213;40.528;44.712;2023-04-28T00:44:45;80189.34;;;6.32;58.05
62680;BME280;68213;40.528;44.712;2023-04-28T00:45:51;80194.34;;;6.40;57.89
62680;BME280;68213;40.528;44.712;2023-04-28T00:46:52;80190.00;;;6.32;58.04
62680;BME280;68213;40.528;44.712;2023-04-28T00:47:54;80198.75;;;6.37;58.04
62680;BME280;68213;40.528;44.712;2023-04-28T00:49:14;80196.81;;;6.38;58.10
62680;BME280;68213;40.528;44.712;2023-04-28T00:50:15;80181.81;;;6.26;58.37
62680;BME280;68213;40.528;44.712;2023-04-28T00:51:16;80176.09;;;6.18;58.29
62680;BME280;68213;40.528;44.712;2023-04-28T00:52:17;80202.91;;;6.30;58.35
62680;BME280;68213;40.528;44.712;2023-04-28T00:53:20;80195.00;;;6.28;58.44
62680;BME280;68213;40.528;44.712;2023-04-28T00:54:21;80200.06;;;6.26;58.61
62680;BME280;68213;40.528;44.712;2023-04-28T00:55:23;80188.56;;;6.19;58.63
62680;BME280;68213;40.528;44.712;2023-04-28T00:56:28;80194.72;;;6.24;58.59
62680;BME280;68213;40.528;44.712;2023-04-28T00:57:33;80199.28;;;6.24;58.60
62680;BME280;68213;40.528;44.712;2023-04-28T00:58:33;80202.44;;;6.22;58.61
62680;BME280;68213;40.528;44.712;2023-04-28T00:59:35;80191.25;;;6.10;58.63
62680;BME280;68213;40.528;44.712;2023-04-28T01:00:36;80204.94;;;6.20;59.04
62680;BME280;68213;40.528;44.712;2023-04-28T01:01:39;80200.38;;;6.21;58.99
62680;BME280;68213;40.528;44.712;2023-04-28T01:02:42;80188.41;;;6.06;59.09
62680;BME280;68213;40.528;44.712;2023-04-28T01:03:43;80198.78;;;6.15;59.25
62680;BME280;68213;40.528;44.712;2023-04-28T01:04:44;80196.97;;;6.18;59.26
62680;BME280;68213;40.528;44.712;2023-04-28T01:05:45;80198.91;;;6.17;59.08
62680;BME280;68213;40.528;44.712;2023-04-28T01:06:47;80180.56;;;6.06;59.13
62680;BME280;68213;40.528;44.712;2023-04-28T01:07:48;80190.25;;;6.15;59.05
62680;BME280;68213;40.528;44.712;2023-04-28T01:08:49;80194.94;;;6.16;58.97
62680;BME280;68213;40.528;44.712;2023-04-28T01:09:50;80191.75;;;6.18;59.03
62680;BME280;68213;40.528;44.712;2023-04-28T01:10:51;80194.50;;;6.20;59.04
62680;BME280;68213;40.528;44.712;2023-04-28T01:11:52;80199.16;;;6.22;58.99
62680;BME280;68213;40.528;44.712;2023-04-28T01:12:52;80195.16;;;6.21;59.16
62680;BME280;68213;40.528;44.712;2023-04-28T01:13:55;80189.28;;;6.20;58.80
62680;BME280;68213;40.528;44.712;2023-04-28T01:14:57;80182.41;;;6.15;58.61
62680;BME280;68213;40.528;44.712;2023-04-28T01:15:57;80173.41;;;6.06;58.73
62680;BME280;68213;40.528;44.712;2023-04-28T01:16:58;80194.59;;;6.22;58.74
62680;BME280;68213;40.528;44.712;2023-04-28T01:17:59;80184.16;;;6.22;58.83
62680;BME280;68213;40.528;44.712;2023-04-28T01:19:00;80183.34;;;6.19;59.11
62680;BME280;68213;40.528;44.712;2023-04-28T01:20:01;80193.13;;;6.19;59.13
62680;BME280;68213;40.528;44.712;2023-04-28T01:21:02;80191.75;;;6.18;59.14
62680;BME280;68213;40.528;44.712;2023-04-28T01:22:03;80191.75;;;6.18;59.12
62680;BME280;68213;40.528;44.712;2023-04-28T01:23:04;80191.75;;;6.18;59.06
62680;BME280;68213;40.528;44.712;2023-04-28T01:24:05;80196.72;;;6.14;59.42
62680;BME280;68213;40.528;44.712;2023-04-28T01:25:06;80188.91;;;6.14;59.03
62680;BME280;68213;40.528;44.712;2023-04-28T01:26:07;80194.78;;;6.14;59.15
62680;BME280;68213;40.528;44.712;2023-04-28T01:27:08;80187.63;;;6.15;59.00
62680;BME280;68213;40.528;44.712;2023-04-28T01:28:09;80195.59;;;6.17;58.87
62680;BME280;68213;40.528;44.712;2023-04-28T01:29:10;80196.97;;;6.18;58.70
62680;BME280;68213;40.528;44.712;2023-04-28T01:30:11;80202.19;;;6.18;58.98
62680;BME280;68213;40.528;44.712;2023-04-28T01:31:12;80196.28;;;6.17;58.92
62680;BME280;68213;40.528;44.712;2023-04-28T01:32:12;80189.00;;;6.16;59.13
62680;BME280;68213;40.528;44.712;2023-04-28T01:33:13;80200.69;;;6.15;59.10
62680;BME280;68213;40.528;44.712;2023-04-28T01:34:14;80196.72;;;6.14;59.36
62680;BME280;68213;40.528;44.712;2023-04-28T01:35:15;80201.94;;;6.14;59.35
62680;BME280;68213;40.528;44.712;2023-04-28T01:36:16;80197.41;;;6.14;59.40
62680;BME280;68213;40.528;44.712;2023-04-28T01:37:16;80201.94;;;6.14;59.31
62680;BME280;68213;40.528;44.712;2023-04-28T01:38:17;80190.16;;;6.13;59.26
62680;BME280;68213;40.528;44.712;2023-04-28T01:39:18;80174.28;;;5.99;59.19
62680;BME280;68213;40.528;44.712;2023-04-28T01:40:18;80195.72;;;6.19;58.76
62680;BME280;68213;40.528;44.712;2023-04-28T01:41:19;80199.72;;;6.20;58.66
62680;BME280;68213;40.528;44.712;2023-04-28T01:42:20;80192.84;;;6.15;58.67
62680;BME280;68213;40.528;44.712;2023-04-28T01:43:21;80207.66;;;6.22;58.73
62680;BME280;68213;40.528;44.712;2023-04-28T01:44:22;80202.44;;;6.22;58.86
62680;BME280;68213;40.528;44.712;2023-04-28T01:45:22;80200.38;;;6.21;58.50
62680;BME280;68213;40.528;44.712;2023-04-28T01:46:23;80206.31;;;6.21;58.47
62680;BME280;68213;40.528;44.712;2023-04-28T01:47:24;80205.03;;;6.22;58.45
62680;BME280;68213;40.528;44.712;2023-04-28T01:48:25;80197.53;;;6.16;58.44
62680;BME280;68213;40.528;44.712;2023-04-28T01:49:25;80208.91;;;6.21;58.14
62680;BME280;68213;40.528;44.712;2023-04-28T01:50:26;80207.53;;;6.20;58.28
62680;BME280;68213;40.528;44.712;2023-04-28T01:51:27;80204.94;;;6.20;57.99
62680;BME280;68213;40.528;44.712;2023-04-28T01:52:28;80197.91;;;6.23;58.03
62680;BME280;68213;40.528;44.712;2023-04-28T01:53:28;80199.94;;;6.24;57.88
62680;BME280;68213;40.528;44.712;2023-04-28T01:54:29;80202.69;;;6.26;57.64
62680;BME280;68213;40.528;44.712;2023-04-28T01:55:30;80210.53;;;6.26;57.62
62680;BME280;68213;40.528;44.712;2023-04-28T01:56:31;80210.16;;;6.20;57.99
62680;BME280;68213;40.528;44.712;2023-04-28T01:57:31;80206.75;;;6.17;57.92
62680;BME280;68213;40.528;44.712;2023-04-28T01:58:34;80210.81;;;6.21;58.11
62680;BME280;68213;40.528;44.712;2023-04-28T01:59:35;80213.13;;;6.26;57.83
62680;BME280;68213;40.528;44.712;2023-04-28T02:00:35;80209.38;;;6.29;57.79
62680;BME280;68213;40.528;44.712;2023-04-28T02:01:36;80211.31;;;6.29;57.80
62680;BME280;68213;40.528;44.712;2023-04-28T02:02:37;80210.09;;;6.30;57.40
62680;BME280;68213;40.528;44.712;2023-04-28T02:03:37;80208.03;;;6.28;57.48
62680;BME280;68213;40.528;44.712;2023-04-28T02:04:38;80209.94;;;6.28;57.53
62680;BME280;68213;40.528;44.712;2023-04-28T02:05:39;80213.00;;;6.24;57.73
62680;BME280;68213;40.528;44.712;2023-04-28T02:06:40;80195.78;;;6.09;57.59
62680;BME280;68213;40.528;44.712;2023-04-28T02:07:41;80220.81;;;6.24;57.66
62680;BME280;68213;40.528;44.712;2023-04-28T02:08:42;80212.63;;;6.18;57.93
62680;BME280;68213;40.528;44.712;2023-04-28T02:09:42;80216.25;;;6.13;58.38
62680;BME280;68213;40.528;44.712;2023-04-28T02:10:43;80216.34;;;6.15;58.20
62680;BME280;68213;40.528;44.712;2023-04-28T02:11:44;80222.84;;;6.14;58.01
62680;BME280;68213;40.528;44.712;2023-04-28T02:12:45;80220.22;;;6.14;57.88
62680;BME280;68213;40.528;44.712;2023-04-28T02:13:46;80224.19;;;6.15;57.68
62680;BME280;68213;40.528;44.712;2023-04-28T02:14:46;80214.16;;;6.11;58.07
62680;BME280;68213;40.528;44.712;2023-04-28T02:15:50;80223.25;;;6.10;57.89
62680;BME280;68213;40.528;44.712;2023-04-28T02:16:50;80226.19;;;6.05;58.41
62680;BME280;68213;40.528;44.712;2023-04-28T02:17:54;80220.97;;;6.05;58.15
62680;BME280;68213;40.528;44.712;2023-04-28T02:18:55;80220.53;;;6.08;58.06
62680;BME280;68213;40.528;44.712;2023-04-28T02:19:56;80227.22;;;6.11;58.06
62680;BME280;68213;40.528;44.712;2023-04-28T02:20:56;80229.16;;;6.11;58.06
62680;BME280;68213;40.528;44.712;2023-04-28T02:21:57;80220.16;;;5.92;58.66
62680;BME280;68213;40.528;44.712;2023-04-28T02:22:58;80214.69;;;5.88;58.26
62680;BME280;68213;40.528;44.712;2023-04-28T02:23:58;80228.22;;;6.06;58.38
62680;BME280;68213;40.528;44.712;2023-04-28T02:24:59;80230.03;;;6.03;58.51
62680;BME280;68213;40.528;44.712;2023-04-28T02:26:00;80233.69;;;6.10;57.92
62680;BME280;68213;40.528;44.712;2023-04-28T02:27:04;80228.28;;;6.18;57.39
62680;BME280;68213;40.528;44.712;2023-04-28T02:28:05;80231.53;;;6.28;56.83
62680;BME280;68213;40.528;44.712;2023-04-28T02:29:05;80225.44;;;6.35;56.62
62680;BME280;68213;40.528;44.712;2023-04-28T02:30:07;80212.13;;;6.31;56.39
62680;BME280;68213;40.528;44.712;2023-04-28T02:31:09;80230.03;;;6.47;56.48
62680;BME280;68213;40.528;44.712;2023-04-28T02:32:10;80225.50;;;6.47;56.45
62680;BME280;68213;40.528;44.712;2023-04-28T02:33:11;80230.81;;;6.49;56.43
62680;BME280;68213;40.528;44.712;2023-04-28T02:34:13;80236.63;;;6.48;56.58
62680;BME280;68213;40.528;44.712;2023-04-28T02:35:13;80238.13;;;6.51;56.51
62680;BME280;68213;40.528;44.712;2023-04-28T02:36:16;80241.53;;;6.54;56.49
62680;BME280;68213;40.528;44.712;2023-04-28T02:37:17;80237.13;;;6.56;56.21
62680;BME280;68213;40.528;44.712;2023-04-28T02:38:20;80235.88;;;6.57;56.25
62680;BME280;68213;40.528;44.712;2023-04-28T02:39:21;80241.19;;;6.59;56.42
62680;BME280;68213;40.528;44.712;2023-04-28T02:40:24;80245.19;;;6.60;56.15
62680;BME280;68213;40.528;44.712;2023-04-28T02:41:25;80241.41;;;6.51;57.00
62680;BME280;68213;40.528;44.712;2023-04-28T02:42:26;80243.56;;;6.55;56.75
62680;BME280;68213;40.528;44.712;2023-04-28T02:43:27;80242.28;;;6.44;57.29
62680;BME280;68213;40.528;44.712;2023-04-28T02:44:28;80249.75;;;6.38;58.04
62680;BME280;68213;40.528;44.712;2023-04-28T02:45:29;80248.38;;;6.37;57.93
62680;BME280;68213;40.528;44.712;2023-04-28T02:46:30;80242.09;;;6.30;57.98
62680;BME280;68213;40.528;44.712;2023-04-28T02:47:30;80244.63;;;6.18;58.40
62680;BME280;68213;40.528;44.712;2023-04-28T02:48:32;80245.50;;;6.11;59.53
62680;BME280;68213;40.528;44.712;2023-04-28T02:49:36;80249.38;;;6.10;59.71
62680;BME280;68213;40.528;44.712;2023-04-28T02:50:37;80250.03;;;6.11;59.77
62680;BME280;68213;40.528;44.712;2023-04-28T02:51:38;80248.00;;;6.09;59.32
62680;BME280;68213;40.528;44.712;2023-04-28T02:52:39;80255.50;;;6.15;58.78
62680;BME280;68213;40.528;44.712;2023-04-28T02:53:40;80248.50;;;6.17;58.54
62680;BME280;68213;40.528;44.712;2023-04-28T02:54:42;80250.34;;;6.27;58.27
62680;BME280;68213;40.528;44.712;2023-04-28T02:55:48;80252.66;;;6.32;59.32
62680;BME280;68213;40.528;44.712;2023-04-28T02:56:48;80258.13;;;6.37;59.33
62680;BME280;68213;40.528;44.712;2023-04-28T02:57:49;80249.25;;;6.30;58.23
62680;BME280;68213;40.528;44.712;2023-04-28T02:58:50;80261.34;;;6.47;57.68
62680;BME280;68213;40.528;44.712;2023-04-28T02:59:50;80259.25;;;6.55;57.21
62680;BME280;68213;40.528;44.712;2023-04-28T03:00:51;80257.00;;;6.61;56.90
62680;BME280;68213;40.528;44.712;2023-04-28T03:01:52;80258.94;;;6.61;59.56
62680;BME280;68213;40.528;44.712;2023-04-28T03:02:52;80261.34;;;6.47;59.87
62680;BME280;68213;40.528;44.712;2023-04-28T03:03:54;80263.66;;;6.53;59.09
62680;BME280;68213;40.528;44.712;2023-04-28T03:04:55;80262.78;;;6.60;58.94
62680;BME280;68213;40.528;44.712;2023-04-28T03:05:55;80263.97;;;6.69;59.37
62680;BME280;68213;40.528;44.712;2023-04-28T03:06:58;80263.78;;;6.76;58.69
62680;BME280;68213;40.528;44.712;2023-04-28T03:07:59;80274.16;;;6.86;57.84
62680;BME280;68213;40.528;44.712;2023-04-28T03:09:00;80265.44;;;6.93;58.78
62680;BME280;68213;40.528;44.712;2023-04-28T03:10:00;80265.75;;;6.88;60.45
62680;BME280;68213;40.528;44.712;2023-04-28T03:11:01;80268.28;;;6.97;60.13
62680;BME280;68213;40.528;44.712;2023-04-28T03:12:02;80267.28;;;7.03;60.03
62680;BME280;68213;40.528;44.712;2023-04-28T03:13:02;80270.13;;;7.07;60.23
62680;BME280;68213;40.528;44.712;2023-04-28T03:14:03;80270.94;;;7.09;59.55
62680;BME280;68213;40.528;44.712;2023-04-28T03:15:04;80273.59;;;7.21;59.13
62680;BME280;68213;40.528;44.712;2023-04-28T03:16:07;80275.09;;;7.24;60.52
62680;BME280;68213;40.528;44.712;2023-04-28T03:17:08;80275.63;;;7.11;61.10
62680;BME280;68213;40.528;44.712;2023-04-28T03:18:09;80278.59;;;7.17;60.03
62680;BME280;68213;40.528;44.712;2023-04-28T03:19:10;80272.56;;;7.26;59.31
62680;BME280;68213;40.528;44.712;2023-04-28T03:20:11;80275.81;;;7.37;58.55
62680;BME280;68213;40.528;44.712;2023-04-28T03:21:12;80273.09;;;7.46;57.61
62680;BME280;68213;40.528;44.712;2023-04-28T03:22:13;80273.69;;;7.57;57.11
62680;BME280;68213;40.528;44.712;2023-04-28T03:23:15;80279.63;;;7.69;57.54
62680;BME280;68213;40.528;44.712;2023-04-28T03:24:15;80276.91;;;7.79;55.81
62680;BME280;68213;40.528;44.712;2023-04-28T03:25:16;80277.47;;;7.89;55.34
62680;BME280;68213;40.528;44.712;2023-04-28T03:26:17;80282.03;;;8.01;54.29
62680;BME280;68213;40.528;44.712;2023-04-28T03:27:18;80280.00;;;8.11;54.19
62680;BME280;68213;40.528;44.712;2023-04-28T03:28:22;80280.69;;;8.23;53.58
62680;BME280;68213;40.528;44.712;2023-04-28T03:29:22;80282.63;;;8.35;53.87
62680;BME280;68213;40.528;44.712;2023-04-28T03:30:24;80281.72;;;8.42;54.47
62680;BME280;68213;40.528;44.712;2023-04-28T03:31:25;80281.41;;;8.48;54.89
62680;BME280;68213;40.528;44.712;2023-04-28T03:32:26;80276.16;;;8.60;54.86
62680;BME280;68213;40.528;44.712;2023-04-28T03:33:27;80278.97;;;8.64;53.66
62680;BME280;68213;40.528;44.712;2023-04-28T03:34:27;80280.41;;;8.79;53.62
62680;BME280;68213;40.528;44.712;2023-04-28T03:35:28;80281.56;;;8.87;54.22
62680;BME280;68213;40.528;44.712;2023-04-28T03:36:29;80279.00;;;9.01;53.64
62680;BME280;68213;40.528;44.712;2023-04-28T03:37:29;80289.38;;;9.11;52.73
62680;BME280;68213;40.528;44.712;2023-04-28T03:38:31;80286.59;;;9.21;51.44
62680;BME280;68213;40.528;44.712;2023-04-28T03:39:31;80287.13;;;9.31;52.64
62680;BME280;68213;40.528;44.712;2023-04-28T03:40:32;80255.81;;;9.21;52.11
62680;BME280;68213;40.528;44.712;2023-04-28T03:41:33;80268.53;;;9.39;49.96
62680;BME280;68213;40.528;44.712;2023-04-28T03:42:33;80280.44;;;9.54;52.52
62680;BME280;68213;40.528;44.712;2023-04-28T03:43:34;80262.91;;;9.45;53.07
62680;BME280;68213;40.528;44.712;2023-04-28T03:44:36;80279.91;;;9.69;53.47
62680;BME280;68213;40.528;44.712;2023-04-28T03:45:37;80275.53;;;9.74;53.14
62680;BME280;68213;40.528;44.712;2023-04-28T03:46:38;80234.31;;;9.37;55.54
62680;BME280;68213;40.528;44.712;2023-04-28T03:47:40;80279.94;;;9.58;54.34
62680;BME280;68213;40.528;44.712;2023-04-28T03:48:40;80277.91;;;9.56;55.11
62680;BME280;68213;40.528;44.712;2023-04-28T03:49:41;80274.28;;;9.49;54.38
62680;BME280;68213;40.528;44.712;2023-04-28T03:50:42;80280.81;;;9.48;54.34
62680;BME280;68213;40.528;44.712;2023-04-28T03:51:44;80287.78;;;9.44;53.54
62680;BME280;68213;40.528;44.712;2023-04-28T03:52:46;80280.47;;;9.42;53.94
62680;BME280;68213;40.528;44.712;2023-04-28T03:53:46;80282.09;;;9.35;54.60
62680;BME280;68213;40.528;44.712;2023-04-28T03:54:47;80280.94;;;9.39;54.34
62680;BME280;68213;40.528;44.712;2023-04-28T03:55:48;80278.31;;;9.39;54.70
62680;BME280;68213;40.528;44.712;2023-04-28T03:56:48;80279.31;;;9.45;53.90
62680;BME280;68213;40.528;44.712;2023-04-28T03:57:49;80285.72;;;9.42;54.66
62680;BME280;68213;40.528;44.712;2023-04-28T03:58:50;80291.19;;;9.46;54.78
62680;BME280;68213;40.528;44.712;2023-04-28T03:59:51;80293.22;;;9.48;54.31
62680;BME280;68213;40.528;44.712;2023-04-28T04:00:51;80289.94;;;9.47;53.17
62680;BME280;68213;40.528;44.712;2023-04-28T04:01:52;80276.41;;;9.39;52.83
62680;BME280;68213;40.528;44.712;2023-04-28T04:02:53;80291.03;;;9.56;51.78
62680;BME280;68213;40.528;44.712;2023-04-28T04:03:53;80289.66;;;9.55;52.75
62680;BME280;68213;40.528;44.712;2023-04-28T04:04:54;80289.09;;;9.57;52.78
62680;BME280;68213;40.528;44.712;2023-04-28T04:05:55;80295.69;;;9.58;52.74
62680;BME280;68213;40.528;44.712;2023-04-28T04:06:56;80297.28;;;9.63;51.91
62680;BME280;68213;40.528;44.712;2023-04-28T04:07:57;80290.78;;;9.64;52.18
62680;BME280;68213;40.528;44.712;2023-04-28T04:08:58;80301.38;;;9.66;51.98
62680;BME280;68213;40.528;44.712;2023-04-28T04:10:01;80304.09;;;9.68;53.35
62680;BME280;68213;40.528;44.712;2023-04-28T04:11:02;80304.84;;;9.57;52.99
62680;BME280;68213;40.528;44.712;2023-04-28T04:12:02;80309.88;;;9.52;53.97
62680;BME280;68213;40.528;44.712;2023-04-28T04:13:03;80304.69;;;9.29;54.50
62680;BME280;68213;40.528;44.712;2023-04-28T04:14:04;80306.38;;;9.10;55.42
62680;BME280;68213;40.528;44.712;2023-04-28T04:15:06;80312.41;;;9.01;55.79
62680;BME280;68213;40.528;44.712;2023-04-28T04:16:07;80306.97;;;8.97;55.54
62680;BME280;68213;40.528;44.712;2023-04-28T04:17:07;80313.78;;;9.02;55.57
62680;BME280;68213;40.528;44.712;2023-04-28T04:18:08;80312.53;;;9.03;55.65
62680;BME280;68213;40.528;44.712;2023-04-28T04:19:09;80312.63;;;9.05;55.61
62680;BME280;68213;40.528;44.712;2023-04-28T04:20:10;80311.16;;;9.02;55.73
62680;BME280;68213;40.528;44.712;2023-04-28T04:21:10;80304.56;;;9.01;55.51
62680;BME280;68213;40.528;44.712;2023-04-28T04:22:11;80305.94;;;8.90;55.95
62680;BME280;68213;40.528;44.712;2023-04-28T04:23:12;80304.09;;;8.93;56.10
62680;BME280;68213;40.528;44.712;2023-04-28T04:24:13;80306.16;;;8.94;56.19
62680;BME280;68213;40.528;44.712;2023-04-28T04:25:13;80310.16;;;8.95;56.14
62680;BME280;68213;40.528;44.712;2023-04-28T04:26:14;80313.00;;;8.99;55.77
62680;BME280;68213;40.528;44.712;2023-04-28T04:27:15;80308.22;;;8.96;55.98
62680;BME280;68213;40.528;44.712;2023-04-28T04:28:16;80291.38;;;8.75;56.21
62680;BME280;68213;40.528;44.712;2023-04-28T04:29:16;80310.69;;;9.05;55.69
62680;BME280;68213;40.528;44.712;2023-04-28T04:30:17;80313.06;;;9.13;55.30
62680;BME280;68213;40.528;44.712;2023-04-28T04:31:18;80310.88;;;9.21;54.76
62680;BME280;68213;40.528;44.712;2023-04-28T04:32:19;80315.31;;;9.31;54.92
62680;BME280;68213;40.528;44.712;2023-04-28T04:33:19;80309.00;;;9.36;55.37
62680;BME280;68213;40.528;44.712;2023-04-28T04:34:20;80314.69;;;9.44;55.20
62680;BME280;68213;40.528;44.712;2023-04-28T04:35:21;80308.31;;;9.47;55.23
62680;BME280;68213;40.528;44.712;2023-04-28T04:36:22;80305.78;;;9.49;55.34
62680;BME280;68213;40.528;44.712;2023-04-28T04:37:23;80292.81;;;9.40;55.22
62680;BME280;68213;40.528;44.712;2023-04-28T04:38:26;80313.41;;;9.57;55.48
62680;BME280;68213;40.528;44.712;2023-04-28T04:39:27;80308.63;;;9.53;55.49
62680;BME280;68213;40.528;44.712;2023-04-28T04:40:28;80310.09;;;9.57;55.27
62680;BME280;68213;40.528;44.712;2023-04-28T04:41:28;80312.94;;;9.61;55.36
62680;BME280;68213;40.528;44.712;2023-04-28T04:42:29;80307.78;;;9.63;55.13
62680;BME280;68213;40.528;44.712;2023-04-28T04:43:30;80315.44;;;9.59;55.40
62680;BME280;68213;40.528;44.712;2023-04-28T04:44:31;80305.06;;;9.61;55.46
62680;BME280;68213;40.528;44.712;2023-04-28T04:45:31;80303.06;;;9.47;56.06
62680;BME280;68213;40.528;44.712;2023-04-28T04:46:33;80305.84;;;9.63;56.63
62680;BME280;68213;40.528;44.712;2023-04-28T04:47:33;80305.59;;;9.71;56.45
62680;BME280;68213;40.528;44.712;2023-04-28T04:48:34;80303.84;;;9.76;54.98
62680;BME280;68213;40.528;44.712;2023-04-28T04:49:35;80304.16;;;9.82;54.74
62680;BME280;68213;40.528;44.712;2023-04-28T04:50:35;80281.50;;;9.75;54.72
62680;BME280;68213;40.528;44.712;2023-04-28T04:51:36;80295.53;;;9.93;54.23
62680;BME280;68213;40.528;44.712;2023-04-28T04:52:37;80300.69;;;9.91;54.03
62680;BME280;68213;40.528;44.712;2023-04-28T04:53:38;80301.78;;;10.00;54.12
62680;BME280;68213;40.528;44.712;2023-04-28T04:54:39;80296.84;;;10.06;53.74
62680;BME280;68213;40.528;44.712;2023-04-28T04:55:39;80297.94;;;10.15;52.48
62680;BME280;68213;40.528;44.712;2023-04-28T04:56:40;80296.38;;;10.10;53.93
62680;BME280;68213;40.528;44.712;2023-04-28T04:57:42;80298.22;;;10.21;53.55
62680;BME280;68213;40.528;44.712;2023-04-28T04:58:42;80289.19;;;10.24;53.37
62680;BME280;68213;40.528;44.712;2023-04-28T04:59:46;80293.31;;;10.27;53.46
62680;BME280;68213;40.528;44.712;2023-04-28T05:00:47;80288.59;;;10.26;53.51
62680;BME280;68213;40.528;44.712;2023-04-28T05:01:47;80284.13;;;10.28;54.15
62680;BME280;68213;40.528;44.712;2023-04-28T05:02:48;80292.81;;;10.31;54.11
62680;BME280;68213;40.528;44.712;2023-04-28T05:03:49;80279.78;;;10.33;54.12
62680;BME280;68213;40.528;44.712;2023-04-28T05:04:49;80291.66;;;10.34;54.26
62680;BME280;68213;40.528;44.712;2023-04-28T05:05:50;80283.16;;;10.36;53.46
62680;BME280;68213;40.528;44.712;2023-04-28T05:06:51;80285.25;;;10.37;53.50
62680;BME280;68213;40.528;44.712;2023-04-28T05:07:52;80266.56;;;10.31;52.95
62680;BME280;68213;40.528;44.712;2023-04-28T05:08:52;80286.72;;;10.40;53.53
62680;BME280;68213;40.528;44.712;2023-04-28T05:09:53;80294.38;;;10.36;53.43
62680;BME280;68213;40.528;44.712;2023-04-28T05:10:54;80288.56;;;10.38;53.38
62680;BME280;68213;40.528;44.712;2023-04-28T05:11:54;80288.19;;;10.43;53.01
62680;BME280;68213;40.528;44.712;2023-04-28T05:12:55;80286.03;;;10.40;53.27
62680;BME280;68213;40.528;44.712;2023-04-28T05:13:56;80296.56;;;10.54;53.18
62680;BME280;68213;40.528;44.712;2023-04-28T05:14:56;80291.50;;;10.58;53.01
62680;BME280;68213;40.528;44.712;2023-04-28T05:15:57;80297.84;;;10.67;52.34
62680;BME280;68213;40.528;44.712;2023-04-28T05:16:58;80297.34;;;10.70;52.52
62680;BME280;68213;40.528;44.712;2023-04-28T05:17:58;80291.41;;;10.70;52.49
62680;BME280;68213;40.528;44.712;2023-04-28T05:18:59;80288.59;;;10.79;52.74
62680;BME280;68213;40.528;44.712;2023-04-28T05:21:09;80298.53;;;10.95;51.03
62680;BME280;68213;40.528;44.712;2023-04-28T05:22:11;80292.13;;;10.98;50.49
62680;BME280;68213;40.528;44.712;2023-04-28T05:23:11;80299.69;;;11.06;50.58
62680;BME280;68213;40.528;44.712;2023-04-28T05:24:13;80282.44;;;11.03;50.55
62680;BME280;68213;40.528;44.712;2023-04-28T05:25:14;80293.66;;;11.03;49.80